Averill Park, NY

10:43 AM EDT on October 24, 2014 (GMT -0400)
Taborton Mountain | Change Station
CLOSE
Current Station
Personal Weather Station
Location: Averill Park, NY
Elevation: 1296 ft
Nearby Weather Stations

Elev 1296 ft 42.61 °N, 73.48 °W | Updated 19 seconds ago

Overcast
Overcast
42.6 °F
Feels Like 43 °F
N
2.0
Wind Variable Wind from NNW
Gusts 4.0 mph

Today
High -- | Low -- °F
--% Chance of Precip.
Yesterday
High -- | Low -- °F
Precip. -- in
7:18 AM 5:58 PM
New Moon, 1% visible
Pressure 29.87 in
Visibility 1.5 miles
Clouds Overcast 500 ft
Windchill 43 °F
Dew Point 42 °F
Humidity 97%
Rainfall 0.18 in
Snow Depth Not available.
UV 1.5 out of 12
Pollen .10 out of 12
PM2.5 Good
Flu Activity Sporadic
METAR KALB 241351Z 03005KT 1 1/2SM R01/4500VP6000FT -DZ BR OVC005 08/07 A2987 RMK AO2 SFC VIS 1 3/4 SLP115 VIS 1 1/4V2 1/2 CIG 003V007 P0002 T00780067 $

More Conditions Fewer Conditions

Pressure 29.87 in
Visibility 1.5 miles
Clouds Overcast 500 ft
Windchill 43 °F
Dew Point 42 °F
Humidity 97%
Rainfall 0.18 in
Snow Depth Not available.
UV 1.5 out of 12
Pollen .10 out of 12
PM2.5 Good
Flu Activity Sporadic
METAR KALB 241351Z 03005KT 1 1/2SM R01/4500VP6000FT -DZ BR OVC005 08/07 A2987 RMK AO2 SFC VIS 1 3/4 SLP115 VIS 1 1/4V2 1/2 CIG 003V007 P0002 T00780067 $

More Conditions Fewer Conditions

10-Day Weather Forecast

Almanac

Astronomy

Oct. 24, 2014 Rise Set
Actual Time 7:18 AM EDT 5:58 PM EDT
Civil Twilight 6:49 AM EDT 6:26 PM EDT
Nautical Twilight 6:16 AM EDT 6:59 PM EDT
Astronomical Twilight 5:43 AM EDT 7:32 PM EDT
Moon 7:55 AM EDT 6:35 PM EDT
Length of Visible Light 11h 37m
Length of Day
10h 39m
Tomorrow will be 2m 40s shorter.
New Moon, 1% of the Moon is Illuminated
Today
New Moon
Oct 30
First Quarter
Nov 6
Full
Nov 14
Last Quarter
Nov 22
New

Today's Extremes

State Highs State Lows

Community

WunderPhotos

Upload Photos

1,764,581 photos uploaded!

WunderBlogs® & News

Nearby

Air Quality

  Air Quality AQ Index Pollutant
Yesterday Good
OZONE
Yesterday Good
PM2.5
Current Good
PM2.5
Friday Good
PM2.5

Snow Depth

Station Depth Elevation
No new snow has been reported.

Earthquake Activity

City Distance Mag. Time & Date
No recent earthquake activity has been reported nearby.
Minimum magnitude displayed is 2.5.

Coastal Water Temperatures

Place Temperature
No Stations Reporting

Nearby Weather Stations